Time;durP1;ratioP1;P1;durP2;ratioP2;P2;SDS_P1;SDS_P2;PMS_P1;PMS_P2;Temp;Humidity;BMP_temperature;BMP_pressure;BME280_temperature;BME280_humidity;BME280_pressure;Samples;Min_cycle;Max_cycle;Signal;HPM_P1;HPM_P2
2023/03/17 00:00:19;;;;;;;5.32;2.60;;;10.00;77.60;;;;;;5013364;28;20034;-80
2023/03/17 00:02:48;;;;;;;5.32;2.72;;;10.00;77.60;;;;;;5013396;28;20022;-81
2023/03/17 00:05:22;;;;;;;6.00;3.10;;;10.00;77.50;;;;;;4995757;28;20034;-81
2023/03/17 00:07:50;;;;;;;4.95;2.70;;;10.00;77.50;;;;;;4995171;28;20075;-81
2023/03/17 00:10:21;;;;;;;5.97;2.92;;;10.00;77.60;;;;;;4995416;28;20030;-81
2023/03/17 00:12:54;;;;;;;5.70;2.93;;;10.00;77.50;;;;;;4995673;28;20113;-81
2023/03/17 00:15:22;;;;;;;4.40;2.50;;;10.00;77.60;;;;;;4995361;28;20399;-81
2023/03/17 00:17:48;;;;;;;5.22;2.88;;;9.90;77.50;;;;;;4995958;28;20100;-81
2023/03/17 00:20:32;;;;;;;5.05;2.70;;;10.00;77.60;;;;;;4995232;28;20018;-80
2023/03/17 00:22:59;;;;;;;4.70;2.60;;;10.00;77.60;;;;;;4995638;28;20041;-81
2023/03/17 00:25:27;;;;;;;5.13;2.58;;;10.00;77.50;;;;;;4997345;28;20032;-82
2023/03/17 00:27:54;;;;;;;5.25;2.70;;;10.00;77.40;;;;;;5016824;28;20459;-82
2023/03/17 00:30:21;;;;;;;5.38;2.95;;;10.00;77.50;;;;;;5017126;28;20033;-82
2023/03/17 00:32:49;;;;;;;5.03;2.80;;;10.00;77.50;;;;;;4999502;28;20026;-82
2023/03/17 00:35:21;;;;;;;5.90;2.97;;;10.00;77.60;;;;;;4998591;28;20408;-82
2023/03/17 00:37:48;;;;;;;4.95;2.83;;;10.00;77.40;;;;;;5016724;28;20472;-82
2023/03/17 00:40:28;;;;;;;5.50;2.63;;;10.00;77.40;;;;;;4997935;28;20029;-81
2023/03/17 00:42:53;;;;;;;5.10;2.90;;;10.00;77.60;;;;;;4998809;28;20033;-82
2023/03/17 00:45:20;;;;;;;4.75;2.40;;;10.00;77.60;;;;;;5016317;28;20086;-82
2023/03/17 00:47:48;;;;;;;5.18;2.67;;;10.00;77.60;;;;;;4998006;28;20030;-82
2023/03/17 00:50:23;;;;;;;4.15;2.25;;;9.90;77.50;;;;;;4997901;28;20068;-81
2023/03/17 00:52:50;;;;;;;5.15;2.72;;;9.90;77.50;;;;;;5015138;28;20026;-81
2023/03/17 00:55:18;;;;;;;4.88;2.75;;;10.00;77.70;;;;;;4997125;28;20037;-82
2023/03/17 00:57:46;;;;;;;4.85;2.53;;;10.00;77.60;;;;;;4997613;28;20033;-81
2023/03/17 01:00:17;;;;;;;4.63;2.60;;;10.00;77.80;;;;;;4996992;28;20022;-80
2023/03/17 01:02:44;;;;;;;5.35;2.60;;;10.00;77.80;;;;;;4997556;28;20054;-81
2023/03/17 01:05:10;;;;;;;5.05;2.50;;;10.00;77.70;;;;;;5013136;28;20108;-81
2023/03/17 01:07:37;;;;;;;4.65;2.40;;;10.00;77.80;;;;;;5012704;28;20072;-81
2023/03/17 01:10:03;;;;;;;4.28;2.30;;;10.00;77.80;;;;;;5013100;28;20022;-81
2023/03/17 01:12:28;;;;;;;4.40;2.25;;;10.00;77.80;;;;;;4996677;28;20077;-82
2023/03/17 01:14:54;;;;;;;5.53;2.67;;;10.00;77.80;;;;;;4997438;28;20030;-82
2023/03/17 01:17:20;;;;;;;4.70;2.50;;;10.00;77.80;;;;;;4999431;28;20379;-82
2023/03/17 01:19:46;;;;;;;4.65;2.58;;;10.00;77.80;;;;;;5002805;28;20025;-82
2023/03/17 01:22:12;;;;;;;4.43;2.50;;;10.00;77.80;;;;;;5019542;28;20057;-82
2023/03/17 01:24:38;;;;;;;4.95;2.50;;;10.00;77.80;;;;;;5002386;28;20025;-82
2023/03/17 01:27:05;;;;;;;4.82;2.60;;;9.90;77.70;;;;;;5019964;28;20030;-83
2023/03/17 01:29:32;;;;;;;4.80;2.50;;;10.00;77.80;;;;;;5019435;28;20369;-81
2023/03/17 01:31:57;;;;;;;4.82;2.40;;;9.90;77.70;;;;;;5001987;28;20080;-82
2023/03/17 01:34:23;;;;;;;5.40;2.67;;;9.90;77.70;;;;;;5019135;28;20488;-82
2023/03/17 01:36:49;;;;;;;4.53;2.40;;;10.00;77.80;;;;;;5000867;28;20131;-81
2023/03/17 01:39:15;;;;;;;4.93;2.45;;;9.90;77.80;;;;;;5001432;28;20452;-82
2023/03/17 01:41:41;;;;;;;4.55;2.42;;;10.00;77.70;;;;;;4999310;28;20504;-81
2023/03/17 01:44:16;;;;;;;4.88;2.45;;;10.00;77.90;;;;;;5015898;28;20028;-82
2023/03/17 01:46:42;;;;;;;5.38;2.78;;;10.00;78.00;;;;;;5000389;28;20040;-82
2023/03/17 01:49:11;;;;;;;3.90;2.22;;;10.00;78.00;;;;;;5018223;28;20033;-82
2023/03/17 01:51:57;;;;;;;4.68;2.38;;;10.00;77.80;;;;;;5000332;28;20026;-82
2023/03/17 01:54:31;;;;;;;4.47;2.42;;;10.00;77.80;;;;;;5018315;28;20104;-82
2023/03/17 01:57:08;;;;;;;4.57;2.40;;;10.00;77.80;;;;;;4998386;28;20504;-81
2023/03/17 01:59:38;;;;;;;5.40;2.58;;;9.90;77.90;;;;;;4999160;28;20033;-81
2023/03/17 02:02:08;;;;;;;4.90;2.40;;;10.00;77.90;;;;;;5017171;28;20029;-81
2023/03/17 02:04:34;;;;;;;4.90;2.42;;;9.90;77.90;;;;;;4999769;28;20032;-81
2023/03/17 02:07:02;;;;;;;4.50;2.58;;;10.00;77.70;;;;;;4999618;28;20690;-81
2023/03/17 02:09:28;;;;;;;4.30;2.33;;;9.90;77.80;;;;;;4999298;28;20026;-81
2023/03/17 02:11:55;;;;;;;4.20;2.50;;;9.90;77.90;;;;;;4999390;28;20022;-81
2023/03/17 02:14:20;;;;;;;4.03;2.20;;;10.00;78.00;;;;;;5010993;28;20037;-77
2023/03/17 02:16:47;;;;;;;4.80;2.55;;;10.00;78.00;;;;;;4994269;28;20017;-81
2023/03/17 02:19:12;;;;;;;3.92;2.20;;;9.90;78.00;;;;;;5016626;28;20128;-81
2023/03/17 02:21:41;;;;;;;5.03;2.40;;;9.90;77.90;;;;;;4998744;28;20046;-81
2023/03/17 02:24:23;;;;;;;4.65;2.40;;;9.90;77.90;;;;;;4998597;28;20018;-81
2023/03/17 02:26:51;;;;;;;4.18;2.30;;;10.00;78.00;;;;;;4998424;28;20041;-81
2023/03/17 02:29:19;;;;;;;4.50;2.10;;;10.00;78.00;;;;;;4997791;28;20033;-81
2023/03/17 02:31:45;;;;;;;3.70;2.10;;;9.90;78.00;;;;;;4998319;28;20670;-81
2023/03/17 02:34:10;;;;;;;4.20;2.30;;;9.90;77.90;;;;;;5016343;28;20117;-81
2023/03/17 02:36:36;;;;;;;4.80;2.50;;;9.90;78.10;;;;;;4998131;28;20033;-81
2023/03/17 02:39:03;;;;;;;4.28;2.40;;;9.90;77.80;;;;;;4998520;28;20554;-81
2023/03/17 02:41:29;;;;;;;4.45;2.53;;;10.00;78.10;;;;;;4997438;28;20062;-81
2023/03/17 02:43:54;;;;;;;5.00;2.58;;;10.00;77.90;;;;;;4997602;28;20057;-81
2023/03/17 02:46:20;;;;;;;3.13;2.00;;;9.90;77.80;;;;;;5014713;28;20404;-80
2023/03/17 02:48:46;;;;;;;3.92;2.30;;;10.00;78.00;;;;;;5015859;28;20034;-81
2023/03/17 02:51:12;;;;;;;4.65;2.20;;;10.00;78.00;;;;;;4997547;28;20057;-81
2023/03/17 02:53:37;;;;;;;4.40;2.30;;;9.90;77.90;;;;;;4997367;28;20130;-80
2023/03/17 02:56:03;;;;;;;3.40;2.00;;;9.90;77.90;;;;;;5015646;28;20025;-81
2023/03/17 02:58:29;;;;;;;4.15;2.20;;;9.90;77.90;;;;;;5015137;28;20060;-81
2023/03/17 03:00:55;;;;;;;4.75;2.40;;;10.00;77.90;;;;;;5013477;28;20057;-80
2023/03/17 03:03:21;;;;;;;3.90;2.35;;;9.90;77.90;;;;;;5014488;28;20487;-80
2023/03/17 03:05:46;;;;;;;4.22;2.20;;;9.90;77.80;;;;;;5014981;28;20101;-81
2023/03/17 03:08:12;;;;;;;4.90;2.50;;;9.90;78.00;;;;;;5014936;28;20021;-81
2023/03/17 03:10:37;;;;;;;4.05;2.20;;;10.00;78.00;;;;;;4997116;28;20034;-81
2023/03/17 03:13:03;;;;;;;4.28;2.08;;;9.90;78.00;;;;;;4996780;28;20026;-80
2023/03/17 03:15:28;;;;;;;4.70;2.28;;;9.90;77.90;;;;;;5013887;28;20054;-81
2023/03/17 03:17:54;;;;;;;5.65;2.50;;;10.00;77.90;;;;;;4996730;28;20451;-80
2023/03/17 03:20:19;;;;;;;3.97;2.17;;;9.90;78.00;;;;;;5014531;28;20022;-81
2023/03/17 03:22:45;;;;;;;4.40;2.33;;;9.90;78.00;;;;;;4996681;28;20045;-81
2023/03/17 03:25:11;;;;;;;4.65;2.33;;;10.00;78.10;;;;;;5014821;28;20026;-81
2023/03/17 03:27:36;;;;;;;3.97;2.00;;;9.90;77.90;;;;;;5005015;23;20039;-82
2023/03/17 03:30:03;;;;;;;4.07;2.20;;;9.90;78.00;;;;;;4957142;29;20046;-82
2023/03/17 03:32:28;;;;;;;3.72;2.20;;;9.90;78.00;;;;;;4938449;29;20027;-82
2023/03/17 03:34:54;;;;;;;4.00;2.30;;;9.90;77.90;;;;;;4945965;29;20529;-82
2023/03/17 03:37:19;;;;;;;4.03;2.20;;;9.90;78.10;;;;;;4956195;29;20481;-83
2023/03/17 03:39:45;;;;;;;3.97;1.98;;;9.90;78.40;;;;;;4939021;29;20213;-82
2023/03/17 03:42:10;;;;;;;4.65;2.30;;;9.90;78.00;;;;;;4956461;28;20026;-80
2023/03/17 03:44:36;;;;;;;4.95;2.50;;;9.90;77.90;;;;;;4974210;28;20135;-84
2023/03/17 03:47:02;;;;;;;4.30;2.40;;;9.90;78.00;;;;;;4957689;28;20077;-82
2023/03/17 03:49:27;;;;;;;4.45;2.38;;;9.90;77.90;;;;;;4975519;28;20081;-82
2023/03/17 03:51:53;;;;;;;4.65;2.30;;;9.90;77.90;;;;;;4957675;28;20030;-81
2023/03/17 03:54:19;;;;;;;4.82;2.30;;;9.90;77.90;;;;;;4975622;28;20030;-83
2023/03/17 03:56:44;;;;;;;4.38;2.20;;;9.90;77.90;;;;;;4957588;28;20510;-82
2023/03/17 03:59:10;;;;;;;4.57;2.30;;;9.90;77.90;;;;;;4957816;28;20030;-82
2023/03/17 04:01:35;;;;;;;3.95;2.20;;;9.90;77.80;;;;;;4957748;28;20023;-82
2023/03/17 04:04:01;;;;;;;4.60;2.10;;;9.90;78.00;;;;;;4958007;28;20045;-81
2023/03/17 04:06:26;;;;;;;4.60;2.20;;;9.90;77.90;;;;;;4975307;28;20030;-83
2023/03/17 04:08:52;;;;;;;4.22;2.08;;;9.90;77.90;;;;;;4958281;28;20041;-84
2023/03/17 04:11:17;;;;;;;4.30;2.30;;;9.90;78.00;;;;;;4957553;28;20034;-82
2023/03/17 04:13:43;;;;;;;5.18;2.40;;;9.90;77.90;;;;;;4957297;28;20027;-82
2023/03/17 04:16:08;;;;;;;3.75;2.00;;;9.90;77.90;;;;;;4974948;28;20026;-81
2023/03/17 04:18:34;;;;;;;3.80;2.13;;;9.90;78.00;;;;;;4974912;28;20081;-82
2023/03/17 04:21:00;;;;;;;3.85;2.20;;;9.90;78.00;;;;;;4957410;28;20680;-82
2023/03/17 04:23:26;;;;;;;4.70;2.28;;;9.90;78.00;;;;;;4957200;28;20046;-80
2023/03/17 04:25:52;;;;;;;4.57;2.20;;;9.90;78.00;;;;;;4957658;28;20489;-82
2023/03/17 04:28:19;;;;;;;4.07;2.20;;;9.90;78.00;;;;;;4957223;28;20053;-83
2023/03/17 04:30:45;;;;;;;4.18;2.35;;;9.90;78.00;;;;;;4956993;28;20031;-82
2023/03/17 04:33:11;;;;;;;4.38;2.50;;;9.90;78.10;;;;;;4957452;28;20504;-82
2023/03/17 04:35:37;;;;;;;4.75;2.10;;;9.90;78.00;;;;;;4957544;28;20022;-82
2023/03/17 04:38:02;;;;;;;4.43;2.30;;;9.90;78.10;;;;;;4957629;28;20030;-83
2023/03/17 04:40:28;;;;;;;3.58;2.00;;;9.90;78.00;;;;;;4957190;28;20023;-82
2023/03/17 04:42:53;;;;;;;3.75;2.10;;;9.90;78.10;;;;;;4957395;28;20023;-82
2023/03/17 04:45:19;;;;;;;3.83;2.10;;;9.90;78.10;;;;;;4958007;28;20060;-82
2023/03/17 04:47:46;;;;;;;4.35;1.98;;;9.90;78.10;;;;;;4957434;28;20050;-81
2023/03/17 04:50:12;;;;;;;4.70;2.40;;;9.90;78.20;;;;;;4974042;28;20081;-81
2023/03/17 04:52:38;;;;;;;3.58;2.03;;;9.90;78.20;;;;;;4958094;28;20022;-84
2023/03/17 04:55:07;;;;;;;4.35;2.25;;;9.90;78.10;;;;;;4961312;28;20042;-82
2023/03/17 04:57:32;;;;;;;4.40;2.30;;;9.90;78.00;;;;;;4961181;28;20074;-82
2023/03/17 04:59:59;;;;;;;3.75;2.00;;;9.90;78.10;;;;;;4979346;28;20062;-82
2023/03/17 05:02:25;;;;;;;3.78;1.95;;;9.90;78.10;;;;;;4976553;28;20412;-82
2023/03/17 05:04:50;;;;;;;3.67;1.95;;;9.90;78.30;;;;;;4960641;28;20018;-81
2023/03/17 09:28:04;;;;;;;10.15;6.35;;;12.20;76.90;;;;;;5792402;23;20040;-83
2023/03/17 09:30:31;;;;;;;11.25;6.60;;;12.20;77.00;;;;;;4937249;29;20510;-84
2023/03/17 09:32:56;;;;;;;10.10;6.25;;;12.20;76.90;;;;;;4938126;29;20023;-83
2023/03/17 09:35:22;;;;;;;11.45;6.32;;;12.20;77.00;;;;;;4937449;29;20030;-83
2023/03/17 09:37:48;;;;;;;10.10;5.75;;;12.20;77.70;;;;;;4941624;28;20046;-83
2023/03/17 09:40:20;;;;;;;11.48;6.07;;;12.20;77.50;;;;;;4959585;28;20023;-84
2023/03/17 09:43:03;;;;;;;;;;;12.20;77.60;;;;;;4960513;28;20534;-84
2023/03/17 09:45:35;;;;;;;11.50;5.65;;;12.20;76.90;;;;;;4977313;28;19906;-83
2023/03/17 09:48:21;;;;;;;9.80;6.18;;;12.20;77.10;;;;;;4957013;28;20031;-83
2023/03/17 09:50:53;;;;;;;10.15;5.75;;;12.20;76.50;;;;;;4940210;29;20572;-83
2023/03/17 09:53:21;;;;;;;;;;;12.30;76.50;;;;;;4940137;29;20039;-83
2023/03/17 09:55:50;;;;;;;9.95;5.72;;;12.30;76.50;;;;;;4940019;29;20373;-82
2023/03/17 09:58:26;;;;;;;10.05;5.80;;;12.20;76.30;;;;;;4938469;29;20031;-83
2023/03/17 10:00:52;;;;;;;9.77;5.50;;;12.30;76.40;;;;;;4939375;29;20024;-83
2023/03/17 10:03:18;;;;;;;9.32;5.50;;;12.30;76.20;;;;;;4956533;29;20038;-83
2023/03/17 10:05:44;;;;;;;11.60;5.55;;;12.30;76.40;;;;;;4956717;29;20166;-83
2023/03/17 10:08:27;;;;;;;9.05;5.57;;;12.30;76.50;;;;;;4939404;29;20113;-83
2023/03/17 10:11:00;;;;;;;8.90;5.22;;;12.30;76.40;;;;;;4939615;29;20145;-83
2023/03/17 10:13:44;;;;;;;9.05;5.18;;;12.20;76.40;;;;;;4939381;29;20171;-83
2023/03/17 10:16:20;;;;;;;8.50;5.45;;;12.30;76.50;;;;;;4956448;29;20030;-82
2023/03/17 10:18:57;;;;;;;8.90;4.97;;;12.30;76.50;;;;;;4939628;29;20058;-83
2023/03/17 10:21:36;;;;;;;10.70;5.28;;;12.30;76.70;;;;;;4956110;29;20058;-83
2023/03/17 10:24:03;;;;;;;8.43;4.68;;;12.30;76.70;;;;;;4939284;29;20314;-83
2023/03/17 10:26:52;;;;;;;8.77;4.57;;;12.30;76.70;;;;;;4956458;29;20038;-82
2023/03/17 10:29:21;;;;;;;8.20;4.90;;;12.20;76.60;;;;;;4956186;28;20054;-83
2023/03/17 10:31:47;;;;;;;7.80;4.75;;;12.30;76.50;;;;;;4956757;29;20029;-82
2023/03/17 10:34:16;;;;;;;8.48;4.50;;;12.30;76.50;;;;;;4956597;29;20033;-82
2023/03/17 10:36:46;;;;;;;8.18;4.50;;;12.30;76.70;;;;;;4956155;29;20034;-81
2023/03/17 10:39:17;;;;;;;8.02;4.32;;;12.30;76.40;;;;;;4938996;29;20119;-83
2023/03/17 10:41:54;;;;;;;7.72;4.43;;;12.30;76.40;;;;;;4940139;29;20027;-83
2023/03/17 10:44:47;;;;;;;7.30;4.50;;;12.30;76.50;;;;;;4942868;29;20040;-83
2023/03/17 10:47:33;;;;;;;7.32;3.97;;;12.30;76.40;;;;;;4949622;29;20043;-83
2023/03/17 10:50:31;;;;;;;7.57;4.28;;;12.30;76.30;;;;;;4959168;28;20509;-83
2023/03/17 10:53:04;;;;;;;8.27;4.50;;;12.30;76.40;;;;;;4941952;29;20510;-83
2023/03/17 10:55:36;;;;;;;8.05;4.38;;;12.30;76.40;;;;;;4957838;29;20075;-83
2023/03/17 10:58:05;;;;;;;7.03;4.35;;;12.30;76.50;;;;;;4941263;29;20118;-84
2023/03/17 11:00:34;;;;;;;7.03;4.05;;;12.30;76.40;;;;;;4941461;29;20110;-83
2023/03/17 11:03:08;;;;;;;6.88;4.00;;;12.30;76.30;;;;;;4957368;29;20508;-83
2023/03/17 11:05:33;;;;;;;7.00;4.00;;;12.30;76.30;;;;;;4958509;29;20521;-83
2023/03/17 11:08:18;;;;;;;8.23;4.32;;;12.30;76.20;;;;;;4958257;28;20023;-83
2023/03/17 11:10:44;;;;;;;8.30;4.22;;;12.30;76.20;;;;;;4958255;29;20027;-83
2023/03/17 11:13:15;;;;;;;7.13;4.05;;;12.30;76.40;;;;;;4958344;29;20090;-83
2023/03/17 11:15:48;;;;;;;6.75;3.90;;;12.30;76.30;;;;;;4940862;29;20031;-83
2023/03/17 11:18:22;;;;;;;7.55;4.38;;;12.30;76.30;;;;;;4940778;29;20459;-83
2023/03/17 11:21:02;;;;;;;8.90;4.00;;;12.30;76.40;;;;;;4957876;29;20463;-83
2023/03/17 11:23:44;;;;;;;6.50;3.45;;;12.30;76.30;;;;;;4940727;29;20056;-83
2023/03/17 11:26:17;;;;;;;;;;;12.30;76.40;;;;;;4941165;29;20114;-83
2023/03/17 11:28:49;;;;;;;7.50;4.03;;;12.40;76.30;;;;;;4940002;29;19939;-83
2023/03/17 11:31:30;;;;;;;6.97;3.92;;;12.40;76.20;;;;;;4940411;29;20027;-83
2023/03/17 11:34:12;;;;;;;6.57;3.40;;;12.30;76.10;;;;;;4941231;29;20035;-83
2023/03/17 11:36:47;;;;;;;7.00;3.78;;;12.40;76.30;;;;;;4941276;29;20027;-83
2023/03/17 11:39:15;;;;;;;7.18;3.50;;;12.40;76.30;;;;;;4958289;28;20023;-83
2023/03/17 11:42:04;;;;;;;6.35;3.58;;;12.40;76.30;;;;;;4958151;29;20375;-83
2023/03/17 11:44:39;;;;;;;7.10;3.70;;;12.40;76.20;;;;;;4941102;29;20506;-83
2023/03/17 11:47:22;;;;;;;6.00;3.40;;;12.30;76.10;;;;;;4940956;29;20032;-83
2023/03/17 11:49:58;;;;;;;6.03;3.40;;;12.30;76.20;;;;;;4941193;29;20537;-83
2023/03/17 11:52:47;;;;;;;6.53;3.30;;;12.30;76.20;;;;;;4957727;29;20042;-83
2023/03/17 11:55:46;;;;;;;6.43;3.30;;;12.20;76.40;;;;;;4957371;29;20067;-83
2023/03/17 11:58:39;;;;;;;5.65;3.05;;;12.30;76.40;;;;;;4939890;29;20482;-83
2023/03/17 12:01:12;;;;;;;6.95;3.60;;;12.30;76.30;;;;;;4956919;29;20028;-83
2023/03/17 12:04:15;;;;;;;6.35;3.50;;;12.20;76.10;;;;;;4939520;29;20075;-83
2023/03/17 12:06:50;;;;;;;6.82;3.20;;;12.20;76.40;;;;;;4929566;29;20071;-83
2023/03/17 12:09:31;;;;;;;6.55;3.22;;;12.20;76.50;;;;;;4939856;29;20035;-83
2023/03/17 12:12:00;;;;;;;6.95;3.65;;;12.20;76.50;;;;;;4939043;29;20401;-83
2023/03/17 12:14:41;;;;;;;5.72;3.00;;;12.20;76.30;;;;;;4957223;29;20103;-83
2023/03/17 12:17:30;;;;;;;5.90;3.38;;;12.20;76.20;;;;;;4956671;29;20035;-82
2023/03/17 12:20:18;;;;;;;5.78;3.25;;;12.20;76.20;;;;;;4956601;29;20498;-83
2023/03/17 12:23:00;;;;;;;5.35;3.30;;;12.20;76.20;;;;;;4938838;29;20537;-83
2023/03/17 12:25:39;;;;;;;5.85;3.15;;;12.10;76.30;;;;;;4956662;29;20461;-83
2023/03/17 12:28:14;;;;;;;5.30;3.05;;;12.10;76.30;;;;;;4939046;29;20087;-83
2023/03/17 12:30:53;;;;;;;6.35;3.30;;;12.10;76.40;;;;;;4955858;29;20107;-83
2023/03/17 12:33:28;;;;;;;6.25;3.10;;;12.10;76.40;;;;;;4955700;29;20055;-83
2023/03/17 12:35:53;;;;;;;6.20;3.00;;;12.10;76.50;;;;;;4938517;29;20027;-83
2023/03/17 12:38:34;;;;;;;6.90;3.50;;;12.10;76.40;;;;;;4955657;28;20509;-83
2023/03/17 12:41:09;;;;;;;;;;;12.10;76.50;;;;;;4938580;29;20554;-82
2023/03/17 12:43:59;;;;;;;5.97;3.00;;;12.10;76.50;;;;;;4955785;29;20017;-83
2023/03/17 12:47:10;;;;;;;5.90;3.00;;;12.10;76.60;;;;;;4938340;29;20031;-83
2023/03/17 12:50:10;;;;;;;4.85;2.70;;;12.10;76.60;;;;;;4925496;29;20302;-82
2023/03/17 12:52:47;;;;;;;5.20;2.90;;;12.10;76.70;;;;;;4955060;29;20031;-83
2023/03/17 12:55:16;;;;;;;5.65;3.00;;;12.00;76.60;;;;;;4937857;29;20054;-83
2023/03/17 12:57:45;;;;;;;5.50;3.15;;;12.00;76.70;;;;;;4954584;28;20029;-83
2023/03/17 13:00:24;;;;;;;5.60;2.88;;;12.00;76.70;;;;;;4937133;29;20110;-82
2023/03/17 13:03:23;;;;;;;5.32;2.85;;;12.00;76.70;;;;;;4937433;29;20497;-83
2023/03/17 13:05:53;;;;;;;5.07;2.63;;;12.00;76.70;;;;;;4888557;29;20047;-83
2023/03/17 13:08:27;;;;;;;5.43;3.00;;;12.00;76.70;;;;;;4937039;29;20043;-82
2023/03/17 13:11:12;;;;;;;5.35;2.88;;;11.90;76.80;;;;;;4937231;29;20106;-83
2023/03/17 13:13:53;;;;;;;7.32;3.03;;;11.90;76.80;;;;;;4955577;28;20390;-83
2023/03/17 13:16:31;;;;;;;4.60;2.70;;;11.90;76.80;;;;;;4958160;29;20371;-83
2023/03/17 13:19:25;;;;;;;5.38;3.05;;;11.90;76.90;;;;;;4956437;28;20493;-83
2023/03/17 13:22:03;;;;;;;5.90;2.95;;;11.90;76.90;;;;;;4940195;29;20031;-82
2023/03/17 13:24:46;;;;;;;5.63;2.72;;;11.90;76.90;;;;;;4940401;29;20030;-82
2023/03/17 13:27:31;;;;;;;5.22;2.75;;;11.90;77.00;;;;;;4957756;29;20027;-83
2023/03/17 13:29:58;;;;;;;4.50;2.53;;;11.90;77.10;;;;;;4957370;29;20042;-82
2023/03/17 13:32:24;;;;;;;5.18;2.70;;;11.80;77.00;;;;;;4939969;29;20401;-83
2023/03/17 13:34:54;;;;;;;4.95;2.60;;;11.90;77.10;;;;;;4940344;29;20027;-82
2023/03/17 13:38:02;;;;;;;5.28;2.58;;;11.80;77.10;;;;;;4940397;28;20062;-83
2023/03/17 13:40:37;;;;;;;5.70;2.88;;;11.80;77.10;;;;;;4940143;29;20090;-82
2023/03/17 13:43:38;;;;;;;5.40;2.92;;;11.80;77.20;;;;;;4957112;29;20027;-83
2023/03/17 13:46:38;;;;;;;5.15;2.60;;;11.80;77.10;;;;;;4957148;29;20034;-83
2023/03/17 13:49:13;;;;;;;;;;;11.80;77.20;;;;;;4940285;29;20038;-82
2023/03/17 13:51:41;;;;;;;4.70;2.58;;;11.80;77.20;;;;;;4939790;29;19914;-82
2023/03/17 13:54:19;;;;;;;5.57;2.85;;;11.80;77.20;;;;;;4939819;29;20102;-82
2023/03/17 13:56:47;;;;;;;5.50;2.45;;;11.70;77.20;;;;;;4939230;29;20118;-82
2023/03/17 13:59:15;;;;;;;4.75;2.67;;;11.70;77.20;;;;;;4939489;29;20031;-83
2023/03/17 14:01:58;;;;;;;4.70;2.60;;;11.70;77.20;;;;;;4956792;29;20290;-83
2023/03/17 14:04:43;;;;;;;5.50;2.78;;;11.70;77.20;;;;;;4939779;29;20039;-82
2023/03/17 14:07:17;;;;;;;4.78;2.38;;;11.70;77.20;;;;;;4942672;29;20126;-83
2023/03/17 14:09:44;;;;;;;4.53;2.70;;;11.70;77.30;;;;;;4960902;28;20031;-83
2023/03/17 14:12:18;;;;;;;5.25;2.70;;;11.70;77.30;;;;;;4942695;29;20031;-83
2023/03/17 14:14:57;;;;;;;5.00;2.60;;;11.70;77.30;;;;;;4960455;29;20037;-83
2023/03/17 14:17:27;;;;;;;4.70;2.30;;;11.70;77.30;;;;;;4942656;28;20401;-84
2023/03/17 14:20:14;;;;;;;5.03;2.63;;;11.70;77.30;;;;;;4942419;29;20386;-83
2023/03/17 14:22:42;;;;;;;4.82;2.50;;;11.70;77.40;;;;;;4942148;29;20026;-83
2023/03/17 14:25:17;;;;;;;5.47;2.70;;;11.70;77.40;;;;;;4958407;28;20457;-83
2023/03/17 14:27:45;;;;;;;5.20;2.50;;;11.70;77.40;;;;;;4942060;28;20397;-83
2023/03/17 14:30:37;;;;;;;5.25;2.40;;;11.70;77.50;;;;;;4959287;29;20027;-82
2023/03/17 14:33:05;;;;;;;5.50;2.88;;;11.70;77.50;;;;;;4937260;29;20027;-83
2023/03/17 14:35:34;;;;;;;4.82;2.42;;;11.60;77.50;;;;;;4957319;29;20027;-82
2023/03/17 14:38:00;;;;;;;4.20;2.03;;;11.70;77.60;;;;;;4939544;29;20054;-83
2023/03/17 14:40:28;;;;;;;4.50;2.22;;;11.60;77.50;;;;;;4940280;29;20036;-84
2023/03/17 14:42:55;;;;;;;16.55;3.45;;;11.60;77.60;;;;;;4940411;29;20047;-83
2023/03/17 14:45:46;;;;;;;15.48;3.72;;;11.60;77.70;;;;;;4960981;29;20055;-84
2023/03/17 14:48:13;;;;;;;8.82;2.72;;;11.60;77.20;;;;;;4956811;28;20027;-83
2023/03/17 14:50:49;;;;;;;8.57;2.92;;;11.60;77.30;;;;;;4959249;29;20506;-84
2023/03/17 14:53:15;;;;;;;10.70;3.38;;;11.60;77.30;;;;;;4941275;29;20034;-83
2023/03/17 14:55:41;;;;;;;8.52;2.72;;;11.60;77.40;;;;;;4957043;29;20035;-84
2023/03/17 14:58:17;;;;;;;8.55;2.55;;;11.60;77.50;;;;;;4944593;29;20035;-84
2023/03/17 15:00:45;;;;;;;7.57;2.83;;;11.60;77.50;;;;;;4943922;29;20023;-85
2023/03/17 15:03:22;;;;;;;11.90;2.95;;;11.60;77.60;;;;;;4944361;29;20019;-84
2023/03/17 15:05:49;;;;;;;8.05;2.63;;;11.60;77.60;;;;;;4944453;29;20442;-85
2023/03/17 15:08:40;;;;;;;10.13;3.00;;;11.60;77.70;;;;;;4960869;28;20106;-84
2023/03/17 15:11:07;;;;;;;7.78;2.80;;;11.50;77.70;;;;;;4942751;29;20035;-84
2023/03/17 15:13:35;;;;;;;9.30;3.05;;;11.50;77.80;;;;;;4943668;29;20561;-85
2023/03/17 15:16:06;;;;;;;7.10;2.80;;;11.50;77.80;;;;;;4943647;29;20038;-85
2023/03/17 15:18:32;;;;;;;11.02;3.10;;;11.50;77.90;;;;;;4943230;29;20023;-86
2023/03/17 15:20:59;;;;;;;5.75;2.80;;;11.50;77.80;;;;;;4940343;29;20163;-86
2023/03/17 15:23:28;;;;;;;7.88;2.95;;;11.50;77.90;;;;;;4942237;29;20019;-85
2023/03/17 15:25:55;;;;;;;6.55;2.40;;;11.50;77.90;;;;;;4959423;29;20058;-86
2023/03/17 15:28:24;;;;;;;8.45;3.13;;;11.50;78.00;;;;;;4959839;28;20409;-85
2023/03/17 15:30:52;;;;;;;6.45;2.60;;;11.50;78.00;;;;;;4941805;29;20401;-86
2023/03/17 15:33:21;;;;;;;7.10;2.90;;;11.50;78.10;;;;;;4941758;29;20031;-83
2023/03/17 15:35:48;;;;;;;6.88;2.50;;;11.40;78.00;;;;;;4958725;29;20126;-84
2023/03/17 15:38:15;;;;;;;6.30;2.60;;;11.50;78.10;;;;;;4940592;29;20078;-84
2023/03/17 15:40:40;;;;;;;5.70;2.67;;;11.50;78.10;;;;;;4940748;29;20029;-84
2023/03/17 15:43:06;;;;;;;6.60;2.53;;;11.40;78.10;;;;;;4940776;29;20031;-84
2023/03/17 15:45:32;;;;;;;5.82;2.50;;;11.50;78.20;;;;;;4958212;29;20390;-85
2023/03/17 15:47:57;;;;;;;6.35;2.47;;;11.40;78.10;;;;;;4957517;28;20042;-84
2023/03/17 15:50:27;;;;;;;9.45;3.00;;;11.40;78.20;;;;;;4955153;29;20031;-83
2023/03/17 15:52:56;;;;;;;6.15;2.63;;;11.40;78.20;;;;;;4938721;29;20027;-84
2023/03/17 15:55:28;;;;;;;7.35;3.05;;;11.40;78.30;;;;;;4938564;29;20027;-84
2023/03/17 15:57:54;;;;;;;;;;;11.40;78.40;;;;;;4937952;29;20083;-84
2023/03/17 16:00:21;;;;;;;8.20;2.60;;;11.40;78.40;;;;;;4955427;29;19914;-83
2023/03/17 16:02:50;;;;;;;6.72;2.70;;;11.40;78.40;;;;;;4938167;29;20027;-84
2023/03/17 16:05:25;;;;;;;5.63;2.53;;;11.40;78.40;;;;;;4955774;29;20023;-84
2023/03/17 16:07:52;;;;;;;7.60;2.45;;;11.40;78.40;;;;;;4937635;29;20028;-84
2023/03/17 16:10:20;;;;;;;5.93;2.60;;;11.40;78.40;;;;;;4939033;29;20027;-84
2023/03/17 16:12:47;;;;;;;7.32;2.70;;;11.40;78.50;;;;;;4942357;29;20454;-84
2023/03/17 16:15:18;;;;;;;5.15;2.60;;;11.40;78.50;;;;;;4937613;29;20790;-84
2023/03/17 16:17:45;;;;;;;6.13;2.37;;;11.40;79.00;;;;;;4956521;28;20409;-84
2023/03/17 16:20:25;;;;;;;7.20;2.67;;;11.40;78.60;;;;;;4938572;29;20031;-81
2023/03/17 16:22:52;;;;;;;7.78;2.30;;;11.40;78.60;;;;;;4937999;29;20027;-84
2023/03/17 16:25:24;;;;;;;6.25;2.33;;;11.30;78.50;;;;;;4954807;29;20051;-82
2023/03/17 16:27:50;;;;;;;5.70;2.30;;;11.30;79.10;;;;;;4937526;29;20062;-85
2023/03/17 16:30:19;;;;;;;7.22;2.40;;;11.30;78.60;;;;;;4938411;29;20186;-84
2023/03/17 16:32:45;;;;;;;7.43;2.55;;;11.30;78.60;;;;;;4955868;28;20086;-80
2023/03/17 16:35:19;;;;;;;6.38;2.55;;;11.30;78.60;;;;;;4956163;29;20118;-84
2023/03/17 16:37:45;;;;;;;5.43;2.50;;;11.30;78.70;;;;;;4937411;29;20023;-84
2023/03/17 16:40:34;;;;;;;6.10;2.45;;;11.30;78.70;;;;;;4937520;29;20019;-81
2023/03/17 16:43:04;;;;;;;7.07;2.28;;;11.30;78.70;;;;;;4962682;28;20497;-80
2023/03/17 16:45:32;;;;;;;6.05;2.80;;;11.30;78.70;;;;;;4954141;28;20030;-84
2023/03/17 16:48:00;;;;;;;5.05;2.28;;;11.30;78.80;;;;;;4968608;28;20400;-80
2023/03/17 16:50:29;;;;;;;5.28;2.45;;;11.30;78.80;;;;;;4956389;28;20425;-83
2023/03/17 16:52:55;;;;;;;6.05;2.35;;;11.30;78.80;;;;;;4973675;28;20030;-83
2023/03/17 16:55:22;;;;;;;4.90;2.65;;;11.30;78.90;;;;;;4974155;28;20031;-84
2023/03/17 16:57:50;;;;;;;5.53;2.28;;;11.30;78.80;;;;;;4956110;28;20030;-85
2023/03/17 17:00:21;;;;;;;4.47;2.30;;;11.30;78.90;;;;;;4956108;28;20026;-81
2023/03/17 17:02:47;;;;;;;5.50;2.25;;;11.30;78.90;;;;;;4956605;28;20394;-81
2023/03/17 17:05:28;;;;;;;6.28;2.25;;;11.20;78.90;;;;;;4956630;28;20023;-81
2023/03/17 17:07:55;;;;;;;5.15;2.30;;;11.30;79.00;;;;;;4973830;28;20023;-80
2023/03/17 17:10:23;;;;;;;4.40;2.20;;;11.30;79.00;;;;;;4955973;28;20031;-80
2023/03/17 17:12:48;;;;;;;5.90;2.28;;;11.20;79.00;;;;;;4971346;28;20031;-77
2023/03/17 17:15:17;;;;;;;5.40;2.28;;;11.30;79.10;;;;;;4943457;29;20027;-80
2023/03/17 17:17:46;;;;;;;5.20;2.15;;;11.20;79.00;;;;;;4937288;28;20118;-81
2023/03/17 17:20:23;;;;;;;6.43;2.40;;;11.20;79.10;;;;;;4954625;29;20023;-79
2023/03/17 17:22:49;;;;;;;5.30;2.33;;;11.20;79.10;;;;;;4947220;28;20023;-80
2023/03/17 17:25:16;;;;;;;6.00;2.22;;;11.30;79.10;;;;;;4972309;28;20034;-81
2023/03/17 17:27:43;;;;;;;4.65;2.25;;;11.20;79.10;;;;;;4956116;28;20121;-81
2023/03/17 17:30:12;;;;;;;5.53;2.47;;;11.20;79.10;;;;;;4972099;28;20022;-80
2023/03/17 17:32:38;;;;;;;4.53;2.13;;;11.20;79.20;;;;;;4973333;28;20023;-82